»·PEaware :: N1SC KMSO-KGPI

N1SC :: KMSO-KGPI

FLIGHT INFORMATION

Flight Status: Arrived
Operator: Privately registered:
United States
More flights under this callsign
Pilot: Anonymous 10181 (10181)
Aircraft: BEECH AIRCRAFT BONANZA
(BE35)
More flights by this aircraft type
Origin: KMSO Missoula Intl
United States
Destination: KGPI Glacier Park Intl
United States
More flights between these airports :: More routes between these airports
Route: GRZLY3 MSO V231 FCA
File this flight plan on PilotEdge
Remarks: Happy Friday!
Altitude:
(Current/Filed)
11,000ft
Speed:
(Current/Filed)
160kts
Departed: 19-Aug-22 10:40 AM
Arrived: 19-Aug-22 11:27 AM
Distance/Time
Traveled:
84nm/0:47
Distance/Time
To Go:
Arrived

Flight Plot

Page will automatically refresh every two minutes.

Flight plan parsing failed; only flown route is shown


Map Options




Map Legend


Flown Route
Filed Route
Departure Airport
Arrival Airport
Navaid (VOR, NDB)
Fix

Horizontal Profiles

Position Reports

Time Latitude Longitude Heading Altitude Ground
Speed
19-Aug-22 10:23 46.917441 -114.080006 109 3207ft 0kts
19-Aug-22 10:28 46.913321 -114.081781 229 3206ft 0kts
19-Aug-22 10:29 46.913321 -114.081782 229 3206ft 0kts
19-Aug-22 10:30 46.913321 -114.081782 229 3206ft 0kts
19-Aug-22 10:31 46.913321 -114.081782 229 3206ft 0kts
19-Aug-22 10:32 46.913321 -114.081782 229 3206ft 0kts
19-Aug-22 10:33 46.913688 -114.083805 311 3206ft 14kts
19-Aug-22 10:34 46.917632 -114.090409 314 3204ft 27kts
19-Aug-22 10:35 46.923350 -114.100334 310 3199ft 35kts
19-Aug-22 10:36 46.925399 -114.105651 217 3195ft 0kts
19-Aug-22 10:37 46.925399 -114.105651 217 3195ft 0kts
19-Aug-22 10:38 46.925399 -114.105651 217 3195ft 0kts
19-Aug-22 10:39 46.921858 -114.101397 130 3199ft 69kts
19-Aug-22 10:40 46.903405 -114.072759 142 4113ft 106kts
19-Aug-22 10:41 46.874992 -114.077146 170 5281ft 105kts
19-Aug-22 10:42 46.844906 -114.072329 166 6049ft 111kts
19-Aug-22 10:43 46.814564 -114.064893 171 7067ft 113kts
19-Aug-22 10:44 46.783699 -114.060212 133 8095ft 107kts
19-Aug-22 10:45 46.800788 -114.048309 326 8953ft 120kts
19-Aug-22 10:46 46.829718 -114.069285 356 9848ft 118kts
19-Aug-22 10:47 46.862355 -114.075613 349 10585ft 118kts
19-Aug-22 10:48 46.897738 -114.084993 356 10966ft 142kts
19-Aug-22 10:49 46.940027 -114.086440 352 11003ft 159kts
19-Aug-22 10:50 46.984644 -114.088536 0 11003ft 164kts
19-Aug-22 10:51 47.030372 -114.092749 352 10993ft 162kts
19-Aug-22 10:52 47.075561 -114.096537 356 10991ft 164kts
19-Aug-22 10:53 47.121469 -114.100072 357 10907ft 165kts
19-Aug-22 10:54 47.167512 -114.103631 357 10904ft 166kts
19-Aug-22 10:55 47.213303 -114.107171 357 10911ft 165kts
19-Aug-22 10:56 47.259125 -114.110717 356 10915ft 164kts
19-Aug-22 10:57 47.303878 -114.114198 357 10998ft 161kts
19-Aug-22 10:58 47.349195 -114.117717 357 10974ft 165kts
19-Aug-22 10:59 47.395163 -114.121303 356 10966ft 164kts
19-Aug-22 11:00 47.440803 -114.124875 356 10998ft 164kts
19-Aug-22 11:01 47.486274 -114.128417 356 11000ft 164kts
19-Aug-22 11:02 47.532404 -114.132028 356 10996ft 167kts
19-Aug-22 11:03 47.575624 -114.149063 324 10997ft 164kts
19-Aug-22 11:04 47.611725 -114.189158 322 10996ft 164kts
19-Aug-22 11:05 47.648496 -114.230847 322 11002ft 166kts
19-Aug-22 11:06 47.685608 -114.273055 322 10993ft 166kts
19-Aug-22 11:07 47.721646 -114.314018 322 11000ft 164kts
19-Aug-22 11:08 47.758461 -114.355915 322 11011ft 166kts
19-Aug-22 11:09 47.795328 -114.397913 322 10987ft 163kts
19-Aug-22 11:10 47.830915 -114.438593 322 11007ft 161kts
19-Aug-22 11:11 47.866635 -114.479463 322 11002ft 162kts
19-Aug-22 11:12 47.902555 -114.520637 322 10885ft 172kts
19-Aug-22 11:13 47.942508 -114.566683 322 10234ft 185kts
19-Aug-22 11:14 47.988889 -114.579411 19 9548ft 181kts
19-Aug-22 11:15 48.032454 -114.547416 41 8927ft 164kts
19-Aug-22 11:16 48.066834 -114.506685 28 8250ft 154kts
19-Aug-22 11:17 48.102681 -114.473526 40 7614ft 145kts
19-Aug-22 11:18 48.134829 -114.439477 32 6838ft 137kts
19-Aug-22 11:19 48.163824 -114.409625 32 6200ft 124kts
19-Aug-22 11:20 48.192772 -114.380658 39 5438ft 123kts
19-Aug-22 11:21 48.219322 -114.349274 27 4908ft 99kts
19-Aug-22 11:22 48.239913 -114.329762 33 4395ft 82kts
19-Aug-22 11:23 48.258084 -114.309465 32 3876ft 83kts
19-Aug-22 11:24 48.277030 -114.291435 30 3505ft 81kts
19-Aug-22 11:25 48.296129 -114.270781 38 3088ft 86kts
19-Aug-22 11:26 48.306392 -114.258846 119 2961ft 11kts
19-Aug-22 11:27 48.308956 -114.254981 35 2955ft 18kts
19-Aug-22 11:28 48.313414 -114.250043 106 2955ft 9kts
19-Aug-22 11:29 48.313332 -114.248819 123 2974ft 10kts
19-Aug-22 11:30 48.313526 -114.248331 349 2975ft 0kts
19-Aug-22 11:31 48.313526 -114.248331 349 2975ft 0kts

Navigation Log

Ident Type
Flight plan parsing failed, navigation log unavailable